Etusivu
METAR-TAF:

METAR-TAF

Lentoasemat :

Ann Arbor, Michigan, Yhdysvallat

Leveyspiiri: 42-13-26N, Pituuspiiri: 083-44-24W, korkeus merenpinnasta: 255 m

Tämänhetkinen sää

Tämä raportti tehtiin 46 minuuttia sitten, kello 09.53 UTC
Tuuli 12 kn lännestä puuskistuen 19 kn:hen
Lämpötila -1°C
Kosteus 69%
Ilmanpaine 1010 hPa
Näkyvyys: 16.1 km
Pilvistä 2400 ft:n korkeudessa

METAR: KARB 150953Z AUTO 27012G19KT 10SM OVC024 M01/M06 A2983 RMK AO2 SLP109 T10111061

Aika: 05:39 (10:39 UTC)


TAF: puuttuu

Säähavainnot ja -ennusteet yli 4000 lentoasemalta (METAR- ja TAF-raportit).

Käytössä olevat sääasemat on merkitty karttaan keltaisilla ja punaisilla pisteillä.

Aseta hiiri pisteen päälle nähdäksesi sääaseman nimen.

Klikkaa sitten nähdäksesi säähavainnot ja -ennusteet.

Kartan vaihtaminen: klikkaa mustalla rastilla varustettuja vihreitä pisteitä, niin voit zoomata sisään; viivalla varustettua vihreää pistettä, niin voit zoomata ulos tai vihreitä nuolia, niin pääset viereisille kartoille.


METAR-TAF: